Time;durP1;ratioP1;P1;durP2;ratioP2;P2;SDS_P1;SDS_P2;PMS_P1;PMS_P2;Temp;Humidity;BMP_temperature;BMP_pressure;BME280_temperature;BME280_humidity;BME280_pressure;Samples;Min_cycle;Max_cycle;Signal;HPM_P1;HPM_P2
2021/12/13 00:05:51;;;;;;;11.82;8.02;;;;;;;;;;20835180;28;20092;-58
2021/12/13 00:15:56;;;;;;;11.68;7.97;;;;;;;;;;20834659;28;20055;-57
2021/12/13 00:25:58;;;;;;;;;;;;;;;;;;20835670;28;20452;-58
2021/12/13 00:36:15;;;;;;;9.27;5.90;;;;;;;;;;20834691;28;20409;-59
2021/12/13 00:46:19;;;;;;;8.80;6.35;;;;;;;;;;20831255;28;20053;-55
2021/12/13 00:56:39;;;;;;;11.85;7.30;;;;;;;;;;20831852;28;20056;-56
2021/12/13 01:06:57;;;;;;;10.65;7.18;;;;;;;;;;20831282;28;20415;-55
2021/12/13 01:17:08;;;;;;;11.15;6.90;;;;;;;;;;20830491;28;20041;-54
2021/12/13 01:27:11;;;;;;;13.43;7.35;;;;;;;;;;20830218;28;20171;-55
2021/12/13 01:37:16;;;;;;;12.38;8.68;;;;;;;;;;20829573;28;20052;-55
2021/12/13 01:47:23;;;;;;;11.82;8.70;;;;;;;;;;20828708;28;20057;-55
2021/12/13 01:57:39;;;;;;;10.38;8.02;;;;;;;;;;20841794;28;20041;-56
2021/12/13 02:07:47;;;;;;;11.35;7.90;;;;;;;;;;20843365;28;20057;-55
2021/12/13 02:17:51;;;;;;;12.07;7.38;;;;;;;;;;20842795;28;20045;-53
2021/12/13 02:28:23;;;;;;;12.68;8.20;;;;;;;;;;20842542;28;20093;-56
2021/12/13 02:38:27;;;;;;;17.00;8.20;;;;;;;;;;20915763;28;20456;-55
2021/12/13 02:48:34;;;;;;;11.07;8.52;;;;;;;;;;20914522;28;20140;-56
2021/12/13 02:58:38;;;;;;;10.50;7.50;;;;;;;;;;20914296;28;20124;-55
2021/12/13 03:08:50;;;;;;;11.43;7.93;;;;;;;;;;20891802;28;20057;-55
2021/12/13 03:18:57;;;;;;;10.23;7.90;;;;;;;;;;20838446;28;20104;-54
2021/12/13 03:29:25;;;;;;;8.48;6.85;;;;;;;;;;20838553;28;20057;-54
2021/12/13 03:39:43;;;;;;;12.05;7.97;;;;;;;;;;20837055;28;20045;-54
2021/12/13 03:49:54;;;;;;;12.60;8.05;;;;;;;;;;20835876;28;20144;-54
2021/12/13 04:00:06;;;;;;;10.77;7.68;;;;;;;;;;20835650;28;20427;-55
2021/12/13 04:10:26;;;;;;;11.30;7.60;;;;;;;;;;20834237;28;20150;-53
2021/12/13 04:20:33;;;;;;;9.68;7.38;;;;;;;;;;20833463;28;20061;-57
2021/12/13 04:30:56;;;;;;;10.25;7.15;;;;;;;;;;20832737;28;20071;-55
2021/12/13 04:41:13;;;;;;;10.02;8.10;;;;;;;;;;20832791;28;20545;-54
2021/12/13 04:51:38;;;;;;;13.00;8.13;;;;;;;;;;20831132;28;20072;-55
2021/12/13 05:01:53;;;;;;;12.43;8.00;;;;;;;;;;20831643;28;20083;-55
2021/12/13 05:12:03;;;;;;;12.57;7.78;;;;;;;;;;20831022;28;20505;-54
2021/12/13 05:22:09;;;;;;;10.40;8.35;;;;;;;;;;20830362;28;20399;-55
2021/12/13 05:32:15;;;;;;;11.45;8.63;;;;;;;;;;20842987;28;20049;-55
2021/12/13 05:42:18;;;;;;;10.50;8.30;;;;;;;;;;20846395;28;20145;-54
2021/12/13 05:52:26;;;;;;;10.38;7.82;;;;;;;;;;20845104;28;20057;-55
2021/12/13 06:02:39;;;;;;;10.88;7.82;;;;;;;;;;20844712;28;20476;-56
2021/12/13 06:12:47;;;;;;;10.68;7.88;;;;;;;;;;20843035;28;20180;-55
2021/12/13 06:22:50;;;;;;;11.77;7.75;;;;;;;;;;20842925;28;20187;-56
2021/12/13 06:32:57;;;;;;;10.07;7.35;;;;;;;;;;20841801;28;20140;-54
2021/12/13 06:43:01;;;;;;;10.55;8.05;;;;;;;;;;20842327;28;20392;-54
2021/12/13 06:53:17;;;;;;;15.68;9.93;;;;;;;;;;20840369;28;20087;-54
2021/12/13 07:03:22;;;;;;;10.38;7.50;;;;;;;;;;20840115;28;20154;-55
2021/12/13 07:13:48;;;;;;;13.98;7.57;;;;;;;;;;20839833;28;20054;-57
2021/12/13 07:24:12;;;;;;;11.02;7.53;;;;;;;;;;20837508;28;20049;-55
2021/12/13 07:34:34;;;;;;;15.07;9.60;;;;;;;;;;20836685;28;20049;-55
2021/12/13 07:44:55;;;;;;;10.38;7.07;;;;;;;;;;20837311;28;20100;-55
2021/12/13 07:55:22;;;;;;;12.00;6.43;;;;;;;;;;20835054;28;20408;-55
2021/12/13 08:05:41;;;;;;;9.02;6.05;;;;;;;;;;20834414;28;20053;-54
2021/12/13 08:16:05;;;;;;;9.02;6.85;;;;;;;;;;20835019;28;20045;-53
2021/12/13 08:26:24;;;;;;;17.08;6.63;;;;;;;;;;20832526;28;20057;-54
2021/12/13 08:36:46;;;;;;;10.45;6.45;;;;;;;;;;20831866;28;20046;-54
2021/12/13 08:47:24;;;;;;;9.80;6.85;;;;;;;;;;20830943;28;20057;-55
2021/12/13 08:57:58;;;;;;;14.10;8.95;;;;;;;;;;20831312;28;20124;-55
2021/12/13 09:08:15;;;;;;;19.02;10.65;;;;;;;;;;20844233;28;20099;-55
2021/12/13 09:18:37;;;;;;;9.43;6.82;;;;;;;;;;20831311;28;20078;-55
2021/12/13 09:28:50;;;;;;;12.48;7.88;;;;;;;;;;20829316;28;20187;-54
2021/12/13 09:39:08;;;;;;;14.77;9.27;;;;;;;;;;20829713;28;20038;-55
2021/12/13 09:49:21;;;;;;;11.50;7.85;;;;;;;;;;20829890;28;20061;-54
2021/12/13 09:59:43;;;;;;;13.45;6.10;;;;;;;;;;20828963;28;20045;-54
2021/12/13 10:10:01;;;;;;;13.43;7.13;;;;;;;;;;20828975;28;20136;-55
2021/12/13 10:20:15;;;;;;;13.85;7.85;;;;;;;;;;20843063;28;20042;-55
2021/12/13 10:30:25;;;;;;;10.27;6.53;;;;;;;;;;20842172;28;20089;-55
2021/12/13 10:40:30;;;;;;;9.05;6.30;;;;;;;;;;20842065;28;20119;-58
2021/12/13 10:50:36;;;;;;;8.90;5.43;;;;;;;;;;20840784;28;20060;-56
2021/12/13 11:00:40;;;;;;;26.90;6.93;;;;;;;;;;20840181;28;20054;-56
2021/12/13 11:10:46;;;;;;;11.93;5.75;;;;;;;;;;20845721;28;20132;-55
2021/12/13 11:20:51;;;;;;;10.65;4.63;;;;;;;;;;20894107;28;20140;-54
2021/12/13 11:30:54;;;;;;;8.38;3.92;;;;;;;;;;20870600;28;20052;-64
2021/12/13 11:41:16;;;;;;;8.88;3.67;;;;;;;;;;20842595;28;20068;-63
2021/12/13 11:51:21;;;;;;;7.00;4.57;;;;;;;;;;20843037;28;20146;-71
2021/12/13 12:01:30;;;;;;;5.80;4.13;;;;;;;;;;20835019;28;20050;-65
2021/12/13 12:11:43;;;;;;;4.97;3.58;;;;;;;;;;20835677;28;20049;-65
2021/12/13 12:21:48;;;;;;;;;;;;;;;;;;20833617;28;20045;-59
2021/12/13 12:32:02;;;;;;;5.63;3.08;;;;;;;;;;20832825;28;20012;-71
2021/12/13 12:42:22;;;;;;;3.88;2.72;;;;;;;;;;20831441;28;20041;-59
2021/12/13 12:52:26;;;;;;;4.57;3.63;;;;;;;;;;20831084;28;20061;-66
2021/12/13 13:02:34;;;;;;;6.68;4.18;;;;;;;;;;20830209;28;20049;-64
2021/12/13 13:12:37;;;;;;;8.10;4.30;;;;;;;;;;20831393;28;20050;-69
2021/12/13 13:22:42;;;;;;;7.43;3.95;;;;;;;;;;20830345;28;20052;-67
2021/12/13 13:32:46;;;;;;;8.23;4.37;;;;;;;;;;20830300;28;20060;-67
2021/12/13 13:42:52;;;;;;;7.30;4.63;;;;;;;;;;20829703;28;20132;-69
2021/12/13 13:52:57;;;;;;;10.55;5.07;;;;;;;;;;20843924;28;20080;-69
2021/12/13 14:03:00;;;;;;;7.05;5.32;;;;;;;;;;20845427;28;20042;-69
2021/12/13 14:13:08;;;;;;;8.05;5.40;;;;;;;;;;20845019;28;20049;-68
2021/12/13 14:23:14;;;;;;;10.73;6.60;;;;;;;;;;20846091;28;20077;-69
2021/12/13 14:33:25;;;;;;;9.52;5.90;;;;;;;;;;20848059;28;20053;-70
2021/12/13 14:43:31;;;;;;;8.05;6.45;;;;;;;;;;20842879;28;20046;-70
2021/12/13 14:53:36;;;;;;;9.98;5.18;;;;;;;;;;20840754;28;20149;-70
2021/12/13 15:03:41;;;;;;;7.00;4.50;;;;;;;;;;20840244;28;20115;-70
2021/12/13 15:13:50;;;;;;;6.85;4.40;;;;;;;;;;20839113;28;20052;-71
2021/12/13 15:23:59;;;;;;;9.13;4.40;;;;;;;;;;20838830;28;20433;-69
2021/12/13 15:34:07;;;;;;;5.63;3.60;;;;;;;;;;20857643;28;20136;-56
2021/12/13 15:44:11;;;;;;;7.57;4.18;;;;;;;;;;20918207;28;20049;-57
2021/12/13 15:54:17;;;;;;;7.53;4.47;;;;;;;;;;20918513;28;20208;-67
2021/12/13 16:04:31;;;;;;;8.82;5.10;;;;;;;;;;20918360;28;20135;-60
2021/12/13 16:14:48;;;;;;;9.93;6.88;;;;;;;;;;20917228;28;20049;-57
2021/12/13 16:24:59;;;;;;;14.50;6.33;;;;;;;;;;20915698;28;20053;-58
2021/12/13 16:35:01;;;;;;;14.20;7.25;;;;;;;;;;20915937;28;20045;-64
2021/12/13 16:45:06;;;;;;;12.50;7.28;;;;;;;;;;20918447;28;20083;-66
2021/12/13 16:55:11;;;;;;;11.48;6.65;;;;;;;;;;20859507;28;20058;-65
2021/12/13 17:05:17;;;;;;;11.95;5.90;;;;;;;;;;20832127;28;20474;-57
2021/12/13 17:15:20;;;;;;;9.35;6.57;;;;;;;;;;20881028;28;20094;-60
2021/12/13 17:25:25;;;;;;;17.92;9.43;;;;;;;;;;20909937;28;20370;-72
2021/12/13 17:35:46;;;;;;;21.42;10.80;;;;;;;;;;20912260;28;20514;-62
2021/12/13 17:45:58;;;;;;;18.45;10.38;;;;;;;;;;20911602;28;20094;-63
2021/12/13 17:56:24;;;;;;;18.42;10.13;;;;;;;;;;20911753;28;20384;-60
2021/12/13 18:06:26;;;;;;;;;;;;;;;;;;20911013;28;20485;-59
2021/12/13 18:16:35;;;;;;;28.40;14.57;;;;;;;;;;20911392;28;20007;-58
2021/12/13 18:26:40;;;;;;;21.23;12.73;;;;;;;;;;20909899;28;20483;-59
2021/12/13 18:36:50;;;;;;;26.92;17.17;;;;;;;;;;20918700;28;20455;-59
2021/12/13 18:47:13;;;;;;;14.10;8.98;;;;;;;;;;20924472;28;20061;-60
2021/12/13 18:57:25;;;;;;;14.15;7.18;;;;;;;;;;20923497;28;20388;-58
2021/12/13 19:07:31;;;;;;;11.55;6.78;;;;;;;;;;20922889;28;20105;-59
2021/12/13 19:17:41;;;;;;;10.98;6.82;;;;;;;;;;20921682;28;20064;-60
2021/12/13 19:27:43;;;;;;;12.85;6.53;;;;;;;;;;20920567;28;20057;-58
2021/12/13 19:37:48;;;;;;;8.18;4.57;;;;;;;;;;20919903;28;20077;-59
2021/12/13 19:47:50;;;;;;;;;;;;;;;;;;20919796;28;20079;-60
2021/12/13 19:58:07;;;;;;;8.77;4.70;;;;;;;;;;20921632;28;19927;-59
2021/12/13 20:08:23;;;;;;;8.80;4.47;;;;;;;;;;20917766;28;20103;-63
2021/12/13 20:18:35;;;;;;;8.02;3.95;;;;;;;;;;20917272;28;20056;-59
2021/12/13 20:28:41;;;;;;;7.57;4.70;;;;;;;;;;20915689;28;20519;-60
2021/12/13 20:38:46;;;;;;;9.52;5.75;;;;;;;;;;20915856;28;20048;-62
2021/12/13 20:48:56;;;;;;;7.65;4.35;;;;;;;;;;20914161;28;20060;-57
2021/12/13 20:59:09;;;;;;;6.20;4.40;;;;;;;;;;20914091;28;20427;-60
2021/12/13 21:09:34;;;;;;;10.18;6.65;;;;;;;;;;20913152;28;20049;-60
2021/12/13 21:19:37;;;;;;;;;;;;;;;;;;20904540;28;20080;-60
2021/12/13 21:29:42;;;;;;;9.82;4.90;;;;;;;;;;20903713;28;19924;-60
2021/12/13 21:39:46;;;;;;;10.50;5.18;;;;;;;;;;20904185;28;20052;-58
2021/12/13 21:49:54;;;;;;;7.45;4.57;;;;;;;;;;20905063;28;20052;-57
2021/12/13 21:59:59;;;;;;;9.10;4.97;;;;;;;;;;20911360;28;20051;-63
2021/12/13 22:10:10;;;;;;;8.27;4.63;;;;;;;;;;20916841;28;20056;-57
2021/12/13 22:20:15;;;;;;;9.55;6.50;;;;;;;;;;20926523;28;20063;-58
2021/12/13 22:30:29;;;;;;;8.07;4.40;;;;;;;;;;20925634;28;20056;-59
2021/12/13 22:40:35;;;;;;;8.48;4.88;;;;;;;;;;20924946;28;20052;-58
2021/12/13 22:50:39;;;;;;;16.15;5.50;;;;;;;;;;20924272;28;20092;-60
2021/12/13 23:00:41;;;;;;;6.68;4.20;;;;;;;;;;20923058;28;20056;-61
2021/12/13 23:10:54;;;;;;;10.93;5.13;;;;;;;;;;20922811;28;20110;-59
2021/12/13 23:20:58;;;;;;;9.13;5.43;;;;;;;;;;20922291;28;20049;-57
2021/12/13 23:31:02;;;;;;;10.25;6.50;;;;;;;;;;20921975;28;20091;-60
2021/12/13 23:51:25;;;;;;;8.02;5.38;;;;;;;;;;20919327;28;20134;-56
